sensor_id;sensor_type;location;lat;lon;timestamp;pressure;altitude;pressure_sealevel;temperature;humidity
75594;BME280;64176;49.156;7.810;2024-02-15T00:00:29;99591.69;;;6.46;100.00
75594;BME280;64176;49.156;7.810;2024-02-15T00:03:15;99590.00;;;6.46;100.00
75594;BME280;64176;49.156;7.810;2024-02-15T00:05:59;99590.16;;;6.52;100.00
75594;BME280;64176;49.156;7.810;2024-02-15T00:08:46;99595.22;;;6.49;100.00
75594;BME280;64176;49.156;7.810;2024-02-15T00:11:32;99585.78;;;6.48;100.00
75594;BME280;64176;49.156;7.810;2024-02-15T00:14:21;99577.13;;;6.45;100.00
75594;BME280;64176;49.156;7.810;2024-02-15T00:17:06;99604.69;;;6.50;100.00
75594;BME280;64176;49.156;7.810;2024-02-15T00:19:54;99590.06;;;6.48;100.00
75594;BME280;64176;49.156;7.810;2024-02-15T00:22:40;99591.22;;;6.59;100.00
75594;BME280;64176;49.156;7.810;2024-02-15T00:25:32;99608.31;;;6.58;100.00
75594;BME280;64176;49.156;7.810;2024-02-15T00:28:16;99599.09;;;6.67;100.00
75594;BME280;64176;49.156;7.810;2024-02-15T00:31:03;99601.47;;;6.59;100.00
75594;BME280;64176;49.156;7.810;2024-02-15T00:33:47;99597.53;;;6.72;100.00
75594;BME280;64176;49.156;7.810;2024-02-15T00:36:31;99590.81;;;6.77;100.00
75594;BME280;64176;49.156;7.810;2024-02-15T00:39:17;99592.72;;;6.84;100.00
75594;BME280;64176;49.156;7.810;2024-02-15T00:42:04;99582.59;;;6.90;100.00
75594;BME280;64176;49.156;7.810;2024-02-15T00:44:52;99575.63;;;6.84;100.00
75594;BME280;64176;49.156;7.810;2024-02-15T00:47:39;99584.28;;;6.89;100.00
75594;BME280;64176;49.156;7.810;2024-02-15T00:50:26;99585.75;;;6.80;100.00
75594;BME280;64176;49.156;7.810;2024-02-15T00:53:10;99577.88;;;6.72;100.00
75594;BME280;64176;49.156;7.810;2024-02-15T00:55:55;99584.25;;;6.88;100.00
75594;BME280;64176;49.156;7.810;2024-02-15T00:58:39;99582.47;;;6.85;100.00
75594;BME280;64176;49.156;7.810;2024-02-15T01:01:26;99587.84;;;6.94;100.00
75594;BME280;64176;49.156;7.810;2024-02-15T01:04:14;99585.47;;;7.02;100.00
75594;BME280;64176;49.156;7.810;2024-02-15T01:07:00;99587.03;;;6.96;100.00
75594;BME280;64176;49.156;7.810;2024-02-15T01:09:44;99592.22;;;6.99;100.00
75594;BME280;64176;49.156;7.810;2024-02-15T01:12:29;99588.06;;;7.04;100.00
75594;BME280;64176;49.156;7.810;2024-02-15T01:15:13;99582.84;;;7.01;100.00
75594;BME280;64176;49.156;7.810;2024-02-15T01:17:57;99579.59;;;7.08;100.00
75594;BME280;64176;49.156;7.810;2024-02-15T01:20:43;99582.03;;;7.02;100.00
75594;BME280;64176;49.156;7.810;2024-02-15T01:23:28;99583.91;;;7.09;100.00
75594;BME280;64176;49.156;7.810;2024-02-15T01:26:15;99567.41;;;6.99;100.00
75594;BME280;64176;49.156;7.810;2024-02-15T01:29:01;99573.72;;;7.12;100.00
75594;BME280;64176;49.156;7.810;2024-02-15T01:31:47;99560.03;;;7.13;100.00
75594;BME280;64176;49.156;7.810;2024-02-15T01:34:31;99574.53;;;7.11;100.00
75594;BME280;64176;49.156;7.810;2024-02-15T01:37:14;99565.00;;;7.05;100.00
75594;BME280;64176;49.156;7.810;2024-02-15T01:39:58;99574.69;;;7.17;100.00
75594;BME280;64176;49.156;7.810;2024-02-15T01:42:45;99579.00;;;7.18;100.00
75594;BME280;64176;49.156;7.810;2024-02-15T01:45:29;99579.84;;;7.18;100.00
75594;BME280;64176;49.156;7.810;2024-02-15T01:48:16;99572.13;;;7.17;100.00
75594;BME280;64176;49.156;7.810;2024-02-15T01:51:03;99576.53;;;7.22;100.00
75594;BME280;64176;49.156;7.810;2024-02-15T01:53:47;99581.78;;;7.27;100.00
75594;BME280;64176;49.156;7.810;2024-02-15T01:56:36;99571.56;;;7.28;100.00
75594;BME280;64176;49.156;7.810;2024-02-15T01:59:23;99566.34;;;7.25;100.00
75594;BME280;64176;49.156;7.810;2024-02-15T02:02:12;99572.13;;;7.18;100.00
75594;BME280;64176;49.156;7.810;2024-02-15T02:04:58;99571.31;;;7.19;100.00
75594;BME280;64176;49.156;7.810;2024-02-15T02:07:44;99561.84;;;7.17;100.00
75594;BME280;64176;49.156;7.810;2024-02-15T02:10:31;99557.66;;;7.22;100.00
75594;BME280;64176;49.156;7.810;2024-02-15T02:13:16;99559.44;;;7.24;100.00
75594;BME280;64176;49.156;7.810;2024-02-15T02:16:01;99554.34;;;7.26;100.00
75594;BME280;64176;49.156;7.810;2024-02-15T02:18:48;99532.59;;;7.12;100.00
75594;BME280;64176;49.156;7.810;2024-02-15T02:21:35;99548.38;;;7.27;100.00
75594;BME280;64176;49.156;7.810;2024-02-15T02:24:23;99551.88;;;7.30;100.00
75594;BME280;64176;49.156;7.810;2024-02-15T02:27:09;99543.31;;;7.31;100.00
75594;BME280;64176;49.156;7.810;2024-02-15T02:29:54;99540.66;;;7.27;100.00
75594;BME280;64176;49.156;7.810;2024-02-15T02:32:42;99538.06;;;7.25;100.00
75594;BME280;64176;49.156;7.810;2024-02-15T02:35:34;99543.28;;;7.30;100.00
75594;BME280;64176;49.156;7.810;2024-02-15T02:38:25;99541.53;;;7.27;100.00
75594;BME280;64176;49.156;7.810;2024-02-15T02:41:09;99536.44;;;7.30;100.00
75594;BME280;64176;49.156;7.810;2024-02-15T02:43:57;99542.56;;;7.36;100.00
75594;BME280;64176;49.156;7.810;2024-02-15T02:46:44;99545.97;;;7.35;100.00
75594;BME280;64176;49.156;7.810;2024-02-15T02:49:35;99547.59;;;7.31;100.00
75594;BME280;64176;49.156;7.810;2024-02-15T02:52:19;99553.69;;;7.35;100.00
75594;BME280;64176;49.156;7.810;2024-02-15T02:55:03;99553.72;;;7.36;100.00
75594;BME280;64176;49.156;7.810;2024-02-15T02:57:48;99552.09;;;7.41;100.00
75594;BME280;64176;49.156;7.810;2024-02-15T03:00:34;99557.25;;;7.41;100.00
75594;BME280;64176;49.156;7.810;2024-02-15T03:03:23;99554.66;;;7.40;100.00
75594;BME280;64176;49.156;7.810;2024-02-15T03:06:12;99541.75;;;7.37;100.00
75594;BME280;64176;49.156;7.810;2024-02-15T03:08:58;99553.84;;;7.42;100.00
75594;BME280;64176;49.156;7.810;2024-02-15T03:11:42;99552.09;;;7.40;100.00
75594;BME280;64176;49.156;7.810;2024-02-15T03:14:26;99554.66;;;7.40;100.00
75594;BME280;64176;49.156;7.810;2024-02-15T03:17:20;99546.88;;;7.37;100.00
75594;BME280;64176;49.156;7.810;2024-02-15T03:20:11;99546.13;;;7.42;100.00
75594;BME280;64176;49.156;7.810;2024-02-15T03:23:04;99543.47;;;7.38;100.00
75594;BME280;64176;49.156;7.810;2024-02-15T03:25:50;99552.97;;;7.42;100.00
75594;BME280;64176;49.156;7.810;2024-02-15T03:28:34;99535.72;;;7.36;100.00
75594;BME280;64176;49.156;7.810;2024-02-15T03:31:22;99537.63;;;7.45;100.00
75594;BME280;64176;49.156;7.810;2024-02-15T03:34:06;99547.84;;;7.42;100.00
75594;BME280;64176;49.156;7.810;2024-02-15T03:36:50;99540.94;;;7.39;100.00
75594;BME280;64176;49.156;7.810;2024-02-15T03:39:37;99543.69;;;7.47;100.00
75594;BME280;64176;49.156;7.810;2024-02-15T03:42:21;99540.34;;;7.51;100.00
75594;BME280;64176;49.156;7.810;2024-02-15T03:45:06;99545.47;;;7.49;100.00
75594;BME280;64176;49.156;7.810;2024-02-15T03:47:57;99539.31;;;7.44;100.00
75594;BME280;64176;49.156;7.810;2024-02-15T03:50:41;99536.72;;;7.43;100.00
75594;BME280;64176;49.156;7.810;2024-02-15T03:53:25;99546.09;;;7.39;100.00
75594;BME280;64176;49.156;7.810;2024-02-15T03:56:09;99539.31;;;7.44;100.00
75594;BME280;64176;49.156;7.810;2024-02-15T03:58:56;99536.72;;;7.43;100.00
75594;BME280;64176;49.156;7.810;2024-02-15T04:01:41;99525.53;;;7.39;100.00
75594;BME280;64176;49.156;7.810;2024-02-15T04:04:25;99538.34;;;7.38;100.00
75594;BME280;64176;49.156;7.810;2024-02-15T04:07:14;99546.22;;;7.45;100.00
75594;BME280;64176;49.156;7.810;2024-02-15T04:09:59;99538.47;;;7.44;100.00
75594;BME280;64176;49.156;7.810;2024-02-15T04:12:44;99542.03;;;7.49;100.00
75594;BME280;64176;49.156;7.810;2024-02-15T04:15:28;99541.94;;;7.46;100.00
75594;BME280;64176;49.156;7.810;2024-02-15T04:18:14;99541.81;;;7.40;100.00
75594;BME280;64176;49.156;7.810;2024-02-15T04:20:59;99553.94;;;7.45;100.00
75594;BME280;64176;49.156;7.810;2024-02-15T04:23:50;99547.91;;;7.45;100.00
75594;BME280;64176;49.156;7.810;2024-02-15T04:26:35;99544.63;;;7.52;100.00
75594;BME280;64176;49.156;7.810;2024-02-15T04:29:23;99523.09;;;7.47;100.00
75594;BME280;64176;49.156;7.810;2024-02-15T04:32:10;99522.19;;;7.45;100.00
75594;BME280;64176;49.156;7.810;2024-02-15T04:34:56;99510.03;;;7.36;100.00
75594;BME280;64176;49.156;7.810;2024-02-15T04:37:40;99523.03;;;7.44;100.00
75594;BME280;64176;49.156;7.810;2024-02-15T04:40:27;99533.31;;;7.44;100.00
75594;BME280;64176;49.156;7.810;2024-02-15T04:43:14;99523.00;;;7.42;100.00
75594;BME280;64176;49.156;7.810;2024-02-15T04:46:02;99525.72;;;7.48;100.00
75594;BME280;64176;49.156;7.810;2024-02-15T04:48:53;99523.25;;;7.54;100.00
75594;BME280;64176;49.156;7.810;2024-02-15T04:51:37;99520.69;;;7.54;100.00
75594;BME280;64176;49.156;7.810;2024-02-15T04:54:24;99512.91;;;7.51;100.00
75594;BME280;64176;49.156;7.810;2024-02-15T04:57:10;99525.81;;;7.53;100.00
75594;BME280;64176;49.156;7.810;2024-02-15T04:59:55;99508.56;;;7.47;100.00
75594;BME280;64176;49.156;7.810;2024-02-15T05:02:42;99509.47;;;7.49;100.00
75594;BME280;64176;49.156;7.810;2024-02-15T05:05:28;99518.88;;;7.49;100.00
75594;BME280;64176;49.156;7.810;2024-02-15T05:08:13;99526.66;;;7.53;100.00
75594;BME280;64176;49.156;7.810;2024-02-15T05:11:06;99520.69;;;7.54;100.00
75594;BME280;64176;49.156;7.810;2024-02-15T05:14:02;99531.06;;;7.57;100.00
75594;BME280;64176;49.156;7.810;2024-02-15T05:16:49;99528.34;;;7.51;100.00
75594;BME280;64176;49.156;7.810;2024-02-15T05:19:38;99521.53;;;7.53;100.00
75594;BME280;64176;49.156;7.810;2024-02-15T05:22:24;99529.28;;;7.55;100.00
75594;BME280;64176;49.156;7.810;2024-02-15T05:25:12;99522.34;;;7.52;100.00
75594;BME280;64176;49.156;7.810;2024-02-15T05:27:59;99524.94;;;7.52;100.00
75594;BME280;64176;49.156;7.810;2024-02-15T05:30:45;99513.56;;;7.43;100.00
75594;BME280;64176;49.156;7.810;2024-02-15T05:33:34;99505.88;;;7.43;100.00
75594;BME280;64176;49.156;7.810;2024-02-15T05:36:22;99505.00;;;7.42;100.00
75594;BME280;64176;49.156;7.810;2024-02-15T05:39:09;99513.66;;;7.46;100.00
75594;BME280;64176;49.156;7.810;2024-02-15T05:41:55;99498.19;;;7.44;100.00
75594;BME280;64176;49.156;7.810;2024-02-15T05:44:44;99504.09;;;7.40;100.00
75594;BME280;64176;49.156;7.810;2024-02-15T05:47:33;99492.06;;;7.38;100.00
75594;BME280;64176;49.156;7.810;2024-02-15T05:50:17;99496.22;;;7.32;100.00
75594;BME280;64176;49.156;7.810;2024-02-15T05:53:04;99484.13;;;7.27;100.00
75594;BME280;64176;49.156;7.810;2024-02-15T05:55:52;99483.00;;;7.16;100.00
75594;BME280;64176;49.156;7.810;2024-02-15T05:58:41;99486.94;;;7.02;100.00
75594;BME280;64176;49.156;7.810;2024-02-15T06:01:25;99486.00;;;6.98;100.00
75594;BME280;64176;49.156;7.810;2024-02-15T06:04:09;99480.78;;;6.93;100.00
75594;BME280;64176;49.156;7.810;2024-02-15T06:06:56;99477.34;;;6.93;100.00
75594;BME280;64176;49.156;7.810;2024-02-15T06:09:44;99479.94;;;6.96;100.00
75594;BME280;64176;49.156;7.810;2024-02-15T06:12:31;99474.56;;;6.85;100.00
75594;BME280;64176;49.156;7.810;2024-02-15T06:15:15;99484.84;;;6.84;100.00
75594;BME280;64176;49.156;7.810;2024-02-15T06:18:02;99476.91;;;6.76;100.00
75594;BME280;64176;49.156;7.810;2024-02-15T06:20:53;99472.63;;;6.75;100.00
75594;BME280;64176;49.156;7.810;2024-02-15T06:23:43;99474.09;;;6.66;100.00
75594;BME280;64176;49.156;7.810;2024-02-15T06:26:27;99470.75;;;6.68;100.00
75594;BME280;64176;49.156;7.810;2024-02-15T06:29:12;99461.13;;;6.60;100.00
75594;BME280;64176;49.156;7.810;2024-02-15T06:32:15;99478.31;;;6.64;100.00
75594;BME280;64176;49.156;7.810;2024-02-15T06:35:17;99468.69;;;6.55;100.00
75594;BME280;64176;49.156;7.810;2024-02-15T06:38:26;99465.16;;;6.50;100.00
75594;BME280;64176;49.156;7.810;2024-02-15T06:41:31;99470.25;;;6.48;100.00
75594;BME280;64176;49.156;7.810;2024-02-15T06:44:15;99462.63;;;6.51;100.00
75594;BME280;64176;49.156;7.810;2024-02-15T06:47:02;99468.59;;;6.50;100.00
75594;BME280;64176;49.156;7.810;2024-02-15T06:49:49;99472.81;;;6.48;100.00
75594;BME280;64176;49.156;7.810;2024-02-15T06:52:38;99467.78;;;6.51;100.00
75594;BME280;64176;49.156;7.810;2024-02-15T06:55:23;99471.00;;;6.44;100.00
75594;BME280;64176;49.156;7.810;2024-02-15T06:58:07;99473.75;;;6.50;100.00
75594;BME280;64176;49.156;7.810;2024-02-15T07:00:53;99454.03;;;6.49;100.00
75594;BME280;64176;49.156;7.810;2024-02-15T07:03:37;99467.59;;;6.45;100.00
75594;BME280;64176;49.156;7.810;2024-02-15T07:06:23;99473.75;;;6.52;100.00
75594;BME280;64176;49.156;7.810;2024-02-15T07:09:07;99473.84;;;6.55;100.00
75594;BME280;64176;49.156;7.810;2024-02-15T07:11:51;99474.75;;;6.57;100.00
75594;BME280;64176;49.156;7.810;2024-02-15T07:14:38;99470.22;;;6.47;100.00
75594;BME280;64176;49.156;7.810;2024-02-15T07:17:22;99454.63;;;6.41;100.00
75594;BME280;64176;49.156;7.810;2024-02-15T07:20:07;99475.34;;;6.47;100.00
75594;BME280;64176;49.156;7.810;2024-02-15T07:22:54;99474.34;;;6.42;100.00
75594;BME280;64176;49.156;7.810;2024-02-15T07:25:38;99473.56;;;6.44;100.00
75594;BME280;64176;49.156;7.810;2024-02-15T07:28:23;99466.75;;;6.45;100.00
75594;BME280;64176;49.156;7.810;2024-02-15T07:31:10;99452.75;;;6.34;100.00
75594;BME280;64176;49.156;7.810;2024-02-15T07:33:56;99472.50;;;6.36;100.00
75594;BME280;64176;49.156;7.810;2024-02-15T07:36:44;99473.34;;;6.35;100.00
75594;BME280;64176;49.156;7.810;2024-02-15T07:39:31;99459.63;;;6.35;100.00
75594;BME280;64176;49.156;7.810;2024-02-15T07:42:15;99470.91;;;6.40;100.00
75594;BME280;64176;49.156;7.810;2024-02-15T07:44:59;99478.88;;;6.50;100.00
75594;BME280;64176;49.156;7.810;2024-02-15T07:47:45;99479.97;;;6.60;100.00
75594;BME280;64176;49.156;7.810;2024-02-15T07:50:30;99485.16;;;6.63;100.00
75594;BME280;64176;49.156;7.810;2024-02-15T07:53:17;99485.06;;;6.58;100.00
75594;BME280;64176;49.156;7.810;2024-02-15T07:56:00;99477.75;;;6.74;100.00
75594;BME280;64176;49.156;7.810;2024-02-15T07:58:50;99470.03;;;6.75;100.00
75594;BME280;64176;49.156;7.810;2024-02-15T08:01:36;99472.66;;;6.77;100.00
75594;BME280;64176;49.156;7.810;2024-02-15T08:04:29;99474.66;;;6.88;100.00
75594;BME280;64176;49.156;7.810;2024-02-15T08:07:13;99472.44;;;7.04;100.00
75594;BME280;64176;49.156;7.810;2024-02-15T08:09:58;99463.44;;;7.22;100.00
75594;BME280;64176;49.156;7.810;2024-02-15T08:12:44;99465.81;;;7.13;100.00
75594;BME280;64176;49.156;7.810;2024-02-15T08:15:28;99470.19;;;7.19;100.00
75594;BME280;64176;49.156;7.810;2024-02-15T08:18:12;99475.56;;;7.28;100.00
75594;BME280;64176;49.156;7.810;2024-02-15T08:20:57;99470.63;;;7.37;100.00
75594;BME280;64176;49.156;7.810;2024-02-15T08:23:41;99472.19;;;7.71;100.00
75594;BME280;64176;49.156;7.810;2024-02-15T08:26:25;99468.25;;;7.88;100.00
75594;BME280;64176;49.156;7.810;2024-02-15T08:29:09;99475.25;;;7.97;100.00
75594;BME280;64176;49.156;7.810;2024-02-15T08:31:53;99475.69;;;8.20;100.00
75594;BME280;64176;49.156;7.810;2024-02-15T08:34:41;99474.84;;;8.21;100.00
75594;BME280;64176;49.156;7.810;2024-02-15T08:37:25;99475.28;;;8.42;100.00
75594;BME280;64176;49.156;7.810;2024-02-15T08:40:09;99472.78;;;8.47;100.00
75594;BME280;64176;49.156;7.810;2024-02-15T08:43:01;99475.59;;;8.60;100.00
75594;BME280;64176;49.156;7.810;2024-02-15T08:45:45;99468.91;;;8.71;100.00
75594;BME280;64176;49.156;7.810;2024-02-15T08:48:34;99466.44;;;8.77;100.00
75594;BME280;64176;49.156;7.810;2024-02-15T08:51:21;99465.81;;;8.95;100.00
75594;BME280;64176;49.156;7.810;2024-02-15T08:54:08;99465.16;;;9.05;100.00
75594;BME280;64176;49.156;7.810;2024-02-15T08:56:55;99461.03;;;9.17;100.00
75594;BME280;64176;49.156;7.810;2024-02-15T08:59:39;99445.66;;;9.24;100.00
75594;BME280;64176;49.156;7.810;2024-02-15T09:02:28;99447.63;;;9.43;100.00
75594;BME280;64176;49.156;7.810;2024-02-15T09:05:16;99432.31;;;9.57;100.00
75594;BME280;64176;49.156;7.810;2024-02-15T09:08:03;99415.91;;;9.54;100.00
75594;BME280;64176;49.156;7.810;2024-02-15T09:10:49;99427.44;;;9.80;100.00
75594;BME280;64176;49.156;7.810;2024-02-15T09:13:38;99426.69;;;9.92;100.00
75594;BME280;64176;49.156;7.810;2024-02-15T09:16:22;99415.75;;;10.15;100.00
75594;BME280;64176;49.156;7.810;2024-02-15T09:19:06;99420.22;;;10.30;100.00
75594;BME280;64176;49.156;7.810;2024-02-15T09:21:50;99415.09;;;10.33;100.00
75594;BME280;64176;49.156;7.810;2024-02-15T09:24:36;99414.19;;;10.31;100.00
75594;BME280;64176;49.156;7.810;2024-02-15T09:27:20;99412.53;;;10.36;100.00
75594;BME280;64176;49.156;7.810;2024-02-15T09:30:05;99411.69;;;10.40;100.00
75594;BME280;64176;49.156;7.810;2024-02-15T09:32:53;99416.84;;;10.39;100.00
75594;BME280;64176;49.156;7.810;2024-02-15T09:35:37;99406.66;;;10.57;100.00
75594;BME280;64176;49.156;7.810;2024-02-15T09:38:22;99412.72;;;10.59;100.00
75594;BME280;64176;49.156;7.810;2024-02-15T09:41:06;99405.06;;;10.73;100.00
75594;BME280;64176;49.156;7.810;2024-02-15T09:43:51;99397.28;;;10.73;100.00
75594;BME280;64176;49.156;7.810;2024-02-15T09:46:37;99401.69;;;10.84;100.00
75594;BME280;64176;49.156;7.810;2024-02-15T09:49:26;99400.00;;;10.88;100.00
75594;BME280;64176;49.156;7.810;2024-02-15T09:52:12;99399.13;;;10.87;100.00
75594;BME280;64176;49.156;7.810;2024-02-15T09:55:03;99388.78;;;10.86;100.00
75594;BME280;64176;49.156;7.810;2024-02-15T09:57:47;99392.31;;;10.99;100.00
75594;BME280;64176;49.156;7.810;2024-02-15T10:00:31;99380.31;;;11.13;100.00
75594;BME280;64176;49.156;7.810;2024-02-15T10:03:22;99387.22;;;11.12;100.00
75594;BME280;64176;49.156;7.810;2024-02-15T10:06:09;99388.91;;;11.10;100.00
75594;BME280;64176;49.156;7.810;2024-02-15T10:08:55;99377.69;;;11.07;100.00
75594;BME280;64176;49.156;7.810;2024-02-15T10:11:58;99382.94;;;11.20;100.00
75594;BME280;64176;49.156;7.810;2024-02-15T10:14:52;99386.44;;;11.33;100.00
75594;BME280;64176;49.156;7.810;2024-02-15T10:17:36;99391.69;;;11.50;100.00
75594;BME280;64176;49.156;7.810;2024-02-15T10:20:28;99383.09;;;11.57;100.00
75594;BME280;64176;49.156;7.810;2024-02-15T10:23:16;99379.69;;;11.67;100.00
75594;BME280;64176;49.156;7.810;2024-02-15T10:26:19;99375.31;;;11.60;100.00
75594;BME280;64176;49.156;7.810;2024-02-15T10:31:56;99380.63;;;11.93;100.00
75594;BME280;64176;49.156;7.810;2024-02-15T10:34:47;99373.75;;;12.00;100.00
75594;BME280;64176;49.156;7.810;2024-02-15T10:37:31;99374.63;;;12.02;100.00
75594;BME280;64176;49.156;7.810;2024-02-15T10:40:22;99370.25;;;11.95;100.00
75594;BME280;64176;49.156;7.810;2024-02-15T10:43:07;99369.44;;;12.00;100.00
75594;BME280;64176;49.156;7.810;2024-02-15T10:45:52;99367.69;;;12.04;100.00
75594;BME280;64176;49.156;7.810;2024-02-15T10:48:37;99359.91;;;12.06;100.00
75594;BME280;64176;49.156;7.810;2024-02-15T10:51:25;99356.47;;;12.19;100.00
75594;BME280;64176;49.156;7.810;2024-02-15T10:54:23;99345.25;;;12.21;100.00
75594;BME280;64176;49.156;7.810;2024-02-15T10:57:20;99328.84;;;12.22;100.00
75594;BME280;64176;49.156;7.810;2024-02-15T11:00:07;99337.50;;;12.32;100.00
75594;BME280;64176;49.156;7.810;2024-02-15T11:03:04;99328.00;;;12.35;100.00
75594;BME280;64176;49.156;7.810;2024-02-15T11:05:52;99314.16;;;12.44;100.00
75594;BME280;64176;49.156;7.810;2024-02-15T11:08:39;99324.50;;;12.41;100.00
75594;BME280;64176;49.156;7.810;2024-02-15T11:11:23;99308.09;;;12.47;100.00
75594;BME280;64176;49.156;7.810;2024-02-15T11:14:26;99307.19;;;12.64;100.00
75594;BME280;64176;49.156;7.810;2024-02-15T11:23:25;99290.63;;;13.05;100.00
75594;BME280;64176;49.156;7.810;2024-02-15T11:26:43;99294.94;;;13.24;100.00
75594;BME280;64176;49.156;7.810;2024-02-15T11:29:50;99287.91;;;13.47;100.00
75594;BME280;64176;49.156;7.810;2024-02-15T11:32:46;99279.25;;;13.45;100.00
75594;BME280;64176;49.156;7.810;2024-02-15T11:36:12;99281.91;;;13.35;100.00
75594;BME280;64176;49.156;7.810;2024-02-15T11:38:56;99276.72;;;13.29;100.00
75594;BME280;64176;49.156;7.810;2024-02-15T11:41:43;99275.81;;;13.37;100.00
75594;BME280;64176;49.156;7.810;2024-02-15T11:44:33;99282.63;;;13.58;100.00
75594;BME280;64176;49.156;7.810;2024-02-15T11:47:18;99273.94;;;13.61;100.00
75594;BME280;64176;49.156;7.810;2024-02-15T11:50:03;99277.44;;;13.57;100.00
75594;BME280;64176;49.156;7.810;2024-02-15T11:52:50;99282.66;;;13.57;100.00
75594;BME280;64176;49.156;7.810;2024-02-15T11:55:34;99273.13;;;13.54;100.00
75594;BME280;64176;49.156;7.810;2024-02-15T11:58:21;99274.00;;;13.52;100.00
75594;BME280;64176;49.156;7.810;2024-02-15T12:01:12;99259.22;;;13.60;100.00
75594;BME280;64176;49.156;7.810;2024-02-15T12:04:18;99247.94;;;13.67;100.00
75594;BME280;64176;49.156;7.810;2024-02-15T12:07:28;99241.88;;;13.68;100.00
75594;BME280;64176;49.156;7.810;2024-02-15T12:10:34;99253.16;;;13.65;100.00
75594;BME280;64176;49.156;7.810;2024-02-15T12:13:39;99248.81;;;13.66;100.00
75594;BME280;64176;49.156;7.810;2024-02-15T12:16:42;99235.78;;;13.73;100.00
75594;BME280;64176;49.156;7.810;2024-02-15T12:19:47;99240.13;;;13.70;98.52
75594;BME280;64176;49.156;7.810;2024-02-15T12:22:36;99228.09;;;13.58;99.58
75594;BME280;64176;49.156;7.810;2024-02-15T12:25:27;99236.69;;;13.69;98.96
75594;BME280;64176;49.156;7.810;2024-02-15T12:28:13;99218.47;;;13.71;98.42
75594;BME280;64176;49.156;7.810;2024-02-15T12:30:58;99225.38;;;13.72;98.74
75594;BME280;64176;49.156;7.810;2024-02-15T12:33:45;99220.19;;;13.73;99.29
75594;BME280;64176;49.156;7.810;2024-02-15T12:36:30;99210.72;;;13.66;100.00
75594;BME280;64176;49.156;7.810;2024-02-15T12:39:24;99209.00;;;13.65;99.01
75594;BME280;64176;49.156;7.810;2024-02-15T12:42:08;99203.84;;;13.59;100.00
75594;BME280;64176;49.156;7.810;2024-02-15T12:44:53;99211.63;;;13.62;98.13
75594;BME280;64176;49.156;7.810;2024-02-15T12:47:37;99206.44;;;13.61;99.07
75594;BME280;64176;49.156;7.810;2024-02-15T12:50:23;99193.44;;;13.61;98.47
75594;BME280;64176;49.156;7.810;2024-02-15T12:53:07;99205.53;;;13.69;98.34
75594;BME280;64176;49.156;7.810;2024-02-15T12:55:53;99198.53;;;13.74;96.09
75594;BME280;64176;49.156;7.810;2024-02-15T12:58:38;99202.03;;;13.70;96.40
75594;BME280;64176;49.156;7.810;2024-02-15T13:01:24;99192.53;;;13.68;96.27
75594;BME280;64176;49.156;7.810;2024-02-15T13:04:23;99183.88;;;13.69;95.84
75594;BME280;64176;49.156;7.810;2024-02-15T13:07:12;99183.00;;;13.68;97.09
75594;BME280;64176;49.156;7.810;2024-02-15T13:10:00;99176.03;;;13.73;95.59
75594;BME280;64176;49.156;7.810;2024-02-15T13:12:46;99169.88;;;13.82;96.01
75594;BME280;64176;49.156;7.810;2024-02-15T13:15:30;99169.06;;;13.80;94.59
75594;BME280;64176;49.156;7.810;2024-02-15T13:18:22;99150.91;;;13.75;93.21
75594;BME280;64176;49.156;7.810;2024-02-15T13:21:07;99154.38;;;13.74;94.76
75594;BME280;64176;49.156;7.810;2024-02-15T13:23:56;99153.44;;;13.81;96.00
75594;BME280;64176;49.156;7.810;2024-02-15T13:26:40;99157.81;;;13.76;96.53
75594;BME280;64176;49.156;7.810;2024-02-15T13:29:26;99149.09;;;13.82;97.41
75594;BME280;64176;49.156;7.810;2024-02-15T13:32:10;99148.22;;;13.83;95.27
75594;BME280;64176;49.156;7.810;2024-02-15T13:34:56;99142.16;;;13.85;94.89
75594;BME280;64176;49.156;7.810;2024-02-15T13:37:46;99137.84;;;13.83;93.53
75594;BME280;64176;49.156;7.810;2024-02-15T13:40:33;99136.06;;;13.88;95.14
75594;BME280;64176;49.156;7.810;2024-02-15T13:43:18;99130.88;;;13.87;94.38
75594;BME280;64176;49.156;7.810;2024-02-15T13:46:04;99123.97;;;13.87;93.92
75594;BME280;64176;49.156;7.810;2024-02-15T13:48:51;99126.44;;;13.99;91.87
75594;BME280;64176;49.156;7.810;2024-02-15T13:51:35;99124.69;;;14.00;90.42
75594;BME280;64176;49.156;7.810;2024-02-15T13:54:21;99126.34;;;14.07;86.15
75594;BME280;64176;49.156;7.810;2024-02-15T13:57:09;99122.22;;;13.89;88.42
75594;BME280;64176;49.156;7.810;2024-02-15T13:59:53;99119.63;;;13.88;90.21
75594;BME280;64176;49.156;7.810;2024-02-15T14:02:42;99106.75;;;13.75;89.56
75594;BME280;64176;49.156;7.810;2024-02-15T14:05:34;99117.94;;;13.82;86.04
75594;BME280;64176;49.156;7.810;2024-02-15T14:08:18;99104.94;;;13.83;85.53
75594;BME280;64176;49.156;7.810;2024-02-15T14:11:04;99103.28;;;13.78;86.48
75594;BME280;64176;49.156;7.810;2024-02-15T14:13:49;99107.53;;;13.82;87.76
75594;BME280;64176;49.156;7.810;2024-02-15T14:16:36;99098.88;;;13.84;84.16
75594;BME280;64176;49.156;7.810;2024-02-15T14:19:20;99086.84;;;13.76;84.98
75594;BME280;64176;49.156;7.810;2024-02-15T14:22:10;99086.75;;;13.83;84.33
75594;BME280;64176;49.156;7.810;2024-02-15T14:24:57;99086.00;;;13.74;85.05
75594;BME280;64176;49.156;7.810;2024-02-15T14:27:41;99086.88;;;13.71;86.63
75594;BME280;64176;49.156;7.810;2024-02-15T14:30:26;99080.81;;;13.71;87.66
75594;BME280;64176;49.156;7.810;2024-02-15T14:33:29;99070.53;;;13.62;89.70
75594;BME280;64176;49.156;7.810;2024-02-15T14:36:14;99060.16;;;13.59;90.23
75594;BME280;64176;49.156;7.810;2024-02-15T14:39:03;99076.56;;;13.62;90.17
75594;BME280;64176;49.156;7.810;2024-02-15T14:41:48;99077.53;;;13.55;90.24
75594;BME280;64176;49.156;7.810;2024-02-15T14:44:32;99069.75;;;13.51;89.90
75594;BME280;64176;49.156;7.810;2024-02-15T14:47:18;99087.06;;;13.53;89.62
75594;BME280;64176;49.156;7.810;2024-02-15T14:50:04;99080.22;;;13.44;90.78
75594;BME280;64176;49.156;7.810;2024-02-15T14:52:52;99074.16;;;13.47;91.56